Time;durP1;ratioP1;P1;durP2;ratioP2;P2;SDS_P1;SDS_P2;PMS_P1;PMS_P2;Temp;Humidity;BMP_temperature;BMP_pressure;BME280_temperature;BME280_humidity;BME280_pressure;Samples;Min_cycle;Max_cycle;Signal;HPM_P1;HPM_P2
2021/08/27 00:02:07;;;;;;;18.25;4.00;;;13.00;99.90;;;;;;5036974;28;20036;-62
2021/08/27 00:04:33;;;;;;;15.95;3.67;;;13.00;99.90;;;;;;5048214;28;20030;-62
2021/08/27 00:06:58;;;;;;;18.02;4.30;;;12.90;99.90;;;;;;5032478;28;20115;-63
2021/08/27 00:09:24;;;;;;;13.27;3.08;;;12.90;99.90;;;;;;5036653;28;20049;-63
2021/08/27 00:11:51;;;;;;;16.48;3.17;;;12.90;99.90;;;;;;5034768;28;20052;-62
2021/08/27 00:14:16;;;;;;;16.88;3.08;;;12.90;99.90;;;;;;5033046;28;20036;-62
2021/08/27 00:16:42;;;;;;;9.02;2.88;;;12.90;99.90;;;;;;5033981;28;20037;-60
2021/08/27 00:19:07;;;;;;;10.40;2.78;;;12.90;99.90;;;;;;5030693;28;20030;-61
2021/08/27 00:21:33;;;;;;;10.68;2.20;;;12.90;99.90;;;;;;5038006;28;20078;-64
2021/08/27 00:23:58;;;;;;;14.15;2.55;;;12.90;99.90;;;;;;5040008;28;20527;-63
2021/08/27 00:26:24;;;;;;;12.32;2.15;;;12.90;99.90;;;;;;5034225;28;20048;-62
2021/08/27 00:28:49;;;;;;;12.32;2.60;;;12.90;99.90;;;;;;5035088;28;20132;-63
2021/08/27 00:31:15;;;;;;;12.15;2.78;;;12.90;99.90;;;;;;5036821;28;20033;-62
2021/08/27 00:33:41;;;;;;;8.43;2.50;;;12.90;99.90;;;;;;5037144;28;20135;-62
2021/08/27 00:36:06;;;;;;;7.70;1.98;;;12.90;99.90;;;;;;5036091;28;20091;-61
2021/08/27 00:38:32;;;;;;;17.23;2.30;;;13.00;99.90;;;;;;5033426;28;20025;-62
2021/08/27 00:40:57;;;;;;;13.15;2.78;;;13.00;99.90;;;;;;5034114;28;20104;-62
2021/08/27 00:43:23;;;;;;;13.40;2.10;;;13.00;99.90;;;;;;5033571;28;20025;-62
2021/08/27 00:45:48;;;;;;;14.02;3.15;;;13.00;99.90;;;;;;5031700;28;20026;-61
2021/08/27 00:48:14;;;;;;;14.20;2.70;;;13.00;99.90;;;;;;5032547;28;20066;-60
2021/08/27 00:50:40;;;;;;;8.25;2.50;;;12.90;99.90;;;;;;5032753;28;20084;-61
2021/08/27 00:53:07;;;;;;;12.27;2.30;;;13.00;99.90;;;;;;5029616;28;20033;-61
2021/08/27 00:55:33;;;;;;;8.85;2.05;;;13.00;99.90;;;;;;5032078;28;20094;-63
2021/08/27 00:57:59;;;;;;;9.13;3.03;;;13.00;99.90;;;;;;5038383;28;20036;-63
2021/08/27 01:00:24;;;;;;;8.60;2.22;;;13.00;99.90;;;;;;5029278;28;20371;-62
2021/08/27 01:02:52;;;;;;;16.05;3.47;;;13.00;99.90;;;;;;5029875;28;20072;-62
2021/08/27 01:05:18;;;;;;;11.85;2.70;;;13.00;99.90;;;;;;5035900;28;20422;-58
2021/08/27 01:07:49;;;;;;;17.05;3.03;;;13.00;99.90;;;;;;5038193;28;20037;-62
2021/08/27 01:10:31;;;;;;;19.67;2.65;;;13.00;99.90;;;;;;5039256;28;20116;-59
2021/08/27 01:13:21;;;;;;;10.20;2.28;;;13.00;99.90;;;;;;5033126;28;20120;-63
2021/08/27 01:16:16;;;;;;;12.10;2.40;;;13.00;99.90;;;;;;5038812;28;20044;-61
2021/08/27 01:18:48;;;;;;;8.95;2.40;;;13.00;99.90;;;;;;5031948;28;20072;-62
2021/08/27 01:21:37;;;;;;;12.93;2.55;;;13.00;99.90;;;;;;5038684;28;20029;-62
2021/08/27 01:24:06;;;;;;;11.00;2.85;;;13.10;99.90;;;;;;5030853;28;20032;-57
2021/08/27 01:26:35;;;;;;;13.27;2.60;;;13.10;99.90;;;;;;5031625;28;20032;-61
2021/08/27 01:29:02;;;;;;;11.55;2.60;;;13.10;99.90;;;;;;5043852;28;20029;-61
2021/08/27 01:31:35;;;;;;;11.25;2.45;;;13.10;99.90;;;;;;5036334;28;20432;-63
2021/08/27 01:34:21;;;;;;;22.57;3.33;;;13.10;99.90;;;;;;5030433;28;20041;-63
2021/08/27 01:36:48;;;;;;;14.02;3.78;;;13.10;99.90;;;;;;5034606;28;20040;-64
2021/08/27 01:39:16;;;;;;;11.23;2.58;;;13.00;99.90;;;;;;5040017;28;20650;-63
2021/08/27 01:41:44;;;;;;;12.50;2.92;;;13.00;99.90;;;;;;5033927;28;20493;-62
2021/08/27 01:44:12;;;;;;;24.38;3.55;;;13.00;99.90;;;;;;5036575;28;20037;-63
2021/08/27 01:46:41;;;;;;;12.57;2.40;;;13.10;99.90;;;;;;5035822;28;20016;-62
2021/08/27 01:49:09;;;;;;;10.95;2.40;;;13.00;99.90;;;;;;5034043;28;20092;-60
2021/08/27 01:51:36;;;;;;;17.33;2.40;;;13.00;99.90;;;;;;5044898;28;20032;-63
2021/08/27 01:54:03;;;;;;;13.25;2.75;;;13.00;99.90;;;;;;5033519;28;20412;-64
2021/08/27 01:56:30;;;;;;;18.45;3.55;;;13.00;99.90;;;;;;5042283;28;20032;-63
2021/08/27 01:59:01;;;;;;;15.65;2.92;;;13.00;99.90;;;;;;5037760;28;20033;-62
2021/08/27 02:01:28;;;;;;;12.70;2.88;;;13.00;99.90;;;;;;5032167;28;20728;-63
2021/08/27 02:03:55;;;;;;;20.58;2.67;;;13.00;99.90;;;;;;5045144;28;20071;-63
2021/08/27 02:06:22;;;;;;;10.80;2.60;;;13.00;99.90;;;;;;5035315;28;20496;-62
2021/08/27 02:08:50;;;;;;;23.80;3.33;;;13.00;99.90;;;;;;5044393;28;20029;-64
2021/08/27 02:11:17;;;;;;;10.43;2.30;;;13.00;99.90;;;;;;5038711;28;20024;-64
2021/08/27 02:13:44;;;;;;;11.32;2.65;;;13.00;99.90;;;;;;5042621;28;20346;-63
2021/08/27 02:16:10;;;;;;;13.23;3.42;;;13.00;99.90;;;;;;5038220;28;20506;-63
2021/08/27 02:18:36;;;;;;;15.10;2.53;;;13.00;99.90;;;;;;5038583;28;20087;-63
2021/08/27 02:21:05;;;;;;;13.02;2.42;;;13.00;99.90;;;;;;5040679;28;20473;-62
2021/08/27 02:23:33;;;;;;;9.13;3.20;;;13.00;99.90;;;;;;5044319;28;20483;-61
2021/08/27 02:26:00;;;;;;;19.02;3.80;;;12.90;99.90;;;;;;5047616;28;20031;-63
2021/08/27 02:28:26;;;;;;;9.75;2.83;;;12.90;99.90;;;;;;5035355;28;20508;-65
2021/08/27 02:30:53;;;;;;;14.27;3.85;;;12.90;99.90;;;;;;5040259;28;20181;-63
2021/08/27 02:33:20;;;;;;;11.77;1.98;;;12.90;99.90;;;;;;5034734;28;20060;-63
2021/08/27 02:35:47;;;;;;;15.82;3.22;;;12.90;99.90;;;;;;5043784;28;20087;-62
2021/08/27 02:38:18;;;;;;;11.52;3.25;;;12.80;99.90;;;;;;5041690;28;20437;-64
2021/08/27 02:40:43;;;;;;;16.70;3.85;;;12.80;99.90;;;;;;5035322;28;20034;-64
2021/08/27 02:43:09;;;;;;;17.05;3.00;;;12.80;99.90;;;;;;5037212;28;20034;-64
2021/08/27 02:45:35;;;;;;;15.95;3.17;;;12.80;99.90;;;;;;5041320;28;20028;-64
2021/08/27 02:48:00;;;;;;;14.88;3.08;;;12.80;99.90;;;;;;5039057;28;20036;-64
2021/08/27 02:50:29;;;;;;;13.02;3.63;;;12.80;99.90;;;;;;5041272;28;20037;-64
2021/08/27 02:53:01;;;;;;;15.68;3.42;;;12.80;99.90;;;;;;5036904;28;20129;-60
2021/08/27 02:55:35;;;;;;;14.10;3.30;;;12.80;99.90;;;;;;5036534;28;20087;-64
2021/08/27 02:58:07;;;;;;;22.48;4.75;;;12.80;99.90;;;;;;5041798;28;20110;-62
2021/08/27 03:00:40;;;;;;;17.10;3.47;;;12.80;99.90;;;;;;5036745;28;20044;-64
2021/08/27 03:03:07;;;;;;;9.95;3.30;;;12.80;99.90;;;;;;5040657;28;20021;-61
2021/08/27 03:05:42;;;;;;;15.93;3.65;;;12.80;99.90;;;;;;5038743;28;20738;-63
2021/08/27 03:08:14;;;;;;;15.70;4.13;;;12.80;99.90;;;;;;5042010;28;20353;-63
2021/08/27 03:10:44;;;;;;;8.85;3.75;;;12.80;99.90;;;;;;5031442;28;20505;-61
2021/08/27 03:13:16;;;;;;;14.70;3.63;;;12.80;99.90;;;;;;5031181;28;20544;-62
2021/08/27 03:15:43;;;;;;;11.07;3.60;;;12.90;99.90;;;;;;5034013;28;20104;-63
2021/08/27 03:18:27;;;;;;;13.65;3.25;;;12.90;99.90;;;;;;5037522;28;20078;-63
2021/08/27 03:21:02;;;;;;;15.77;3.10;;;13.00;99.90;;;;;;5035898;28;20030;-63
2021/08/27 03:23:30;;;;;;;12.88;3.30;;;12.90;99.90;;;;;;5034703;28;20080;-63
2021/08/27 03:25:58;;;;;;;11.20;2.72;;;12.90;99.90;;;;;;5042522;28;20051;-62
2021/08/27 03:28:27;;;;;;;9.48;2.75;;;13.00;99.90;;;;;;5038891;28;20041;-63
2021/08/27 03:30:55;;;;;;;9.68;3.00;;;13.00;99.90;;;;;;5036409;28;20048;-62
2021/08/27 03:33:23;;;;;;;12.07;3.00;;;13.00;99.90;;;;;;5038540;28;20525;-63
2021/08/27 03:35:54;;;;;;;17.05;2.80;;;13.00;99.90;;;;;;5032993;28;20036;-63
2021/08/27 03:38:23;;;;;;;6.80;2.65;;;13.00;99.90;;;;;;5037512;28;20120;-64
2021/08/27 03:40:50;;;;;;;13.73;3.50;;;13.00;99.90;;;;;;5047176;28;20033;-63
2021/08/27 03:43:16;;;;;;;9.95;2.35;;;13.00;99.90;;;;;;5031268;28;20068;-63
2021/08/27 03:45:43;;;;;;;12.13;2.40;;;13.00;99.90;;;;;;5032815;28;20034;-63
2021/08/27 03:48:09;;;;;;;14.30;3.00;;;13.00;99.90;;;;;;5041923;28;20027;-59
2021/08/27 03:50:36;;;;;;;9.40;2.85;;;13.00;99.90;;;;;;5034833;28;20089;-62
2021/08/27 03:53:02;;;;;;;9.85;3.28;;;13.00;99.90;;;;;;5039658;28;20021;-63
2021/08/27 03:55:28;;;;;;;12.85;3.10;;;13.00;99.90;;;;;;5037908;28;20397;-63
2021/08/27 03:57:55;;;;;;;9.18;2.38;;;13.00;99.90;;;;;;5039618;28;20033;-63
2021/08/27 04:00:23;;;;;;;10.73;2.85;;;13.00;99.90;;;;;;5036566;28;20029;-63
2021/08/27 04:02:51;;;;;;;10.77;2.33;;;13.00;99.90;;;;;;5037348;28;20021;-63
2021/08/27 04:05:18;;;;;;;15.75;2.95;;;13.00;99.90;;;;;;5036436;28;20124;-62
2021/08/27 04:07:45;;;;;;;16.70;3.17;;;13.00;99.90;;;;;;5036398;28;20439;-63
2021/08/27 04:10:13;;;;;;;13.93;2.90;;;13.00;99.90;;;;;;5033712;28;20067;-61
2021/08/27 04:12:40;;;;;;;11.63;2.53;;;13.00;99.90;;;;;;5033718;28;20108;-64
2021/08/27 04:15:10;;;;;;;12.82;2.67;;;13.00;99.90;;;;;;5039217;28;20076;-60
2021/08/27 04:17:37;;;;;;;18.45;3.00;;;13.10;99.90;;;;;;5038348;28;20041;-63
2021/08/27 04:20:05;;;;;;;8.77;3.05;;;13.10;99.90;;;;;;5041856;28;20116;-64
2021/08/27 04:22:31;;;;;;;15.93;2.97;;;13.10;99.90;;;;;;5031584;28;20034;-63
2021/08/27 04:24:56;;;;;;;11.13;2.13;;;13.10;99.90;;;;;;5031790;28;20043;-63
2021/08/27 04:27:22;;;;;;;12.82;2.35;;;13.10;99.90;;;;;;5032570;28;20400;-64
2021/08/27 04:29:48;;;;;;;12.00;2.58;;;13.10;99.90;;;;;;5039264;28;20548;-62
2021/08/27 04:32:14;;;;;;;9.65;2.42;;;13.20;99.90;;;;;;5037103;28;20039;-63
2021/08/27 04:34:39;;;;;;;8.23;2.20;;;13.20;99.90;;;;;;5044449;28;20067;-63
2021/08/27 04:37:05;;;;;;;15.98;2.63;;;13.20;99.90;;;;;;5034180;28;20100;-63
2021/08/27 04:39:30;;;;;;;8.98;2.47;;;13.20;99.90;;;;;;5037471;28;20056;-63
2021/08/27 04:41:56;;;;;;;16.83;2.63;;;13.20;99.90;;;;;;5035511;28;20377;-62
2021/08/27 04:44:21;;;;;;;10.35;2.38;;;13.20;99.90;;;;;;5041719;28;20051;-62
2021/08/27 04:46:47;;;;;;;14.88;3.28;;;13.20;99.90;;;;;;5031284;28;20499;-61
2021/08/27 04:49:12;;;;;;;14.43;2.60;;;13.20;99.90;;;;;;5042238;28;20039;-63
2021/08/27 04:51:38;;;;;;;18.02;2.88;;;13.20;99.90;;;;;;5037846;28;20060;-63
2021/08/27 04:54:04;;;;;;;13.55;3.38;;;13.20;99.90;;;;;;5039701;28;20036;-61
2021/08/27 04:56:29;;;;;;;19.77;3.03;;;13.20;99.90;;;;;;5031849;28;20112;-63
2021/08/27 04:58:55;;;;;;;12.93;3.40;;;13.20;99.90;;;;;;5031600;28;20052;-63
2021/08/27 05:01:20;;;;;;;13.85;2.67;;;13.20;99.90;;;;;;5036407;28;20030;-63
2021/08/27 05:03:46;;;;;;;8.35;2.15;;;13.30;99.90;;;;;;5041673;28;20502;-62
2021/08/27 05:06:11;;;;;;;19.20;2.75;;;13.30;99.90;;;;;;5035118;28;20021;-60
2021/08/27 05:08:37;;;;;;;15.18;2.63;;;13.30;99.90;;;;;;5036287;28;20033;-63
2021/08/27 05:11:03;;;;;;;16.67;2.53;;;13.30;99.90;;;;;;5035395;28;20054;-62
2021/08/27 05:13:29;;;;;;;14.73;6.13;;;13.30;99.90;;;;;;5037442;28;20038;-64
2021/08/27 05:15:54;;;;;;;8.55;2.05;;;13.40;99.90;;;;;;5034598;28;20029;-63
2021/08/27 05:18:20;;;;;;;10.90;2.10;;;13.40;99.90;;;;;;5031025;28;20560;-63
2021/08/27 05:20:46;;;;;;;9.50;2.63;;;13.40;99.90;;;;;;5037375;28;20485;-65
2021/08/27 05:23:11;;;;;;;7.93;2.92;;;13.40;99.90;;;;;;5035080;28;20484;-62
2021/08/27 05:25:37;;;;;;;8.23;2.33;;;13.50;99.90;;;;;;5033794;28;20030;-61
2021/08/27 05:28:02;;;;;;;12.48;2.95;;;13.50;99.90;;;;;;5041843;28;20029;-62
2021/08/27 05:30:28;;;;;;;13.43;2.40;;;13.50;99.90;;;;;;5035177;28;20033;-63
2021/08/27 05:32:55;;;;;;;12.35;2.47;;;13.50;99.90;;;;;;5033787;28;20120;-62
2021/08/27 05:35:21;;;;;;;11.95;2.42;;;13.50;99.90;;;;;;5040259;28;20392;-62
2021/08/27 05:37:46;;;;;;;13.75;2.53;;;13.50;99.90;;;;;;5035204;28;20048;-63
2021/08/27 05:40:12;;;;;;;23.88;2.65;;;13.50;99.90;;;;;;5038770;28;20043;-64
2021/08/27 05:42:40;;;;;;;21.10;3.83;;;13.50;99.90;;;;;;5042512;28;20030;-62
2021/08/27 05:45:07;;;;;;;11.80;3.08;;;13.50;99.90;;;;;;5037708;28;20036;-63
2021/08/27 05:47:32;;;;;;;13.55;2.80;;;13.60;99.90;;;;;;5042610;28;20116;-62
2021/08/27 05:49:58;;;;;;;11.40;2.55;;;13.60;99.90;;;;;;5037356;28;20099;-62
2021/08/27 05:52:25;;;;;;;18.23;3.60;;;13.60;99.90;;;;;;5038198;28;20040;-63
2021/08/27 05:54:51;;;;;;;21.70;3.22;;;13.60;99.90;;;;;;5047745;28;20036;-61
2021/08/27 05:57:16;;;;;;;17.45;2.42;;;13.70;99.90;;;;;;5038820;28;20030;-64
2021/08/27 05:59:42;;;;;;;9.55;2.90;;;13.70;99.90;;;;;;5034456;28;20029;-62
2021/08/27 06:02:08;;;;;;;15.45;3.30;;;13.70;99.90;;;;;;5035959;28;20026;-63
2021/08/27 06:04:34;;;;;;;11.85;2.80;;;13.70;99.90;;;;;;5038330;28;20048;-62
2021/08/27 06:06:59;;;;;;;12.55;3.17;;;13.60;99.90;;;;;;5036606;28;20033;-61
2021/08/27 06:09:25;;;;;;;15.52;3.83;;;13.70;99.90;;;;;;5034041;28;20018;-62
2021/08/27 06:11:50;;;;;;;15.50;3.35;;;13.70;99.90;;;;;;5036252;28;20408;-62
2021/08/27 06:14:16;;;;;;;19.23;3.05;;;13.60;99.90;;;;;;5038873;28;20036;-60
2021/08/27 06:16:42;;;;;;;9.63;3.20;;;13.70;99.90;;;;;;5037542;28;20025;-60
2021/08/27 06:19:07;;;;;;;8.00;2.80;;;13.70;99.90;;;;;;5039339;28;20063;-62
2021/08/27 06:21:35;;;;;;;18.95;3.50;;;13.80;99.90;;;;;;5038056;28;20049;-61
2021/08/27 06:24:01;;;;;;;14.88;3.15;;;13.80;99.90;;;;;;5042005;28;20071;-61
2021/08/27 06:26:30;;;;;;;17.13;3.17;;;13.90;99.90;;;;;;5041349;28;20025;-62
2021/08/27 06:28:58;;;;;;;14.32;3.83;;;13.90;99.90;;;;;;5042895;28;20117;-63
2021/08/27 06:31:24;;;;;;;21.33;3.75;;;14.00;99.90;;;;;;5040571;28;20033;-61
2021/08/27 06:33:49;;;;;;;11.30;3.63;;;14.00;99.90;;;;;;5040313;28;20424;-62
2021/08/27 06:36:15;;;;;;;16.13;3.72;;;14.00;99.90;;;;;;5039541;28;20037;-62
2021/08/27 06:38:41;;;;;;;17.52;3.25;;;14.10;99.90;;;;;;5039324;28;20441;-63
2021/08/27 06:41:07;;;;;;;15.07;3.03;;;14.00;99.90;;;;;;5035940;28;20032;-62
2021/08/27 06:43:36;;;;;;;16.58;3.95;;;14.10;99.90;;;;;;5049862;28;20082;-62
2021/08/27 06:46:11;;;;;;;18.60;4.20;;;14.10;99.90;;;;;;5037640;28;20026;-60
2021/08/27 06:48:38;;;;;;;15.55;2.95;;;14.10;99.90;;;;;;5040939;28;20021;-58
2021/08/27 06:51:03;;;;;;;12.10;3.67;;;14.10;99.90;;;;;;5035887;28;20032;-60
2021/08/27 06:53:29;;;;;;;11.75;3.28;;;14.20;99.90;;;;;;5036197;28;20026;-60
2021/08/27 06:55:56;;;;;;;13.75;3.30;;;14.20;99.90;;;;;;5046355;28;20056;-63
2021/08/27 06:58:21;;;;;;;17.55;3.28;;;14.30;99.90;;;;;;5037297;28;20041;-60
2021/08/27 07:00:47;;;;;;;17.38;3.35;;;14.20;99.90;;;;;;5038792;28;20062;-56
2021/08/27 07:03:13;;;;;;;14.55;3.83;;;14.20;99.90;;;;;;5037616;28;20021;-63
2021/08/27 07:05:38;;;;;;;11.63;3.05;;;14.20;99.90;;;;;;5039920;28;20156;-59
2021/08/27 07:08:04;;;;;;;12.50;3.45;;;14.20;99.90;;;;;;5037756;28;20083;-62
2021/08/27 07:10:30;;;;;;;22.15;3.83;;;14.30;99.90;;;;;;5047221;28;20485;-61
2021/08/27 07:12:56;;;;;;;12.68;2.83;;;14.30;99.90;;;;;;5038440;28;20033;-60
2021/08/27 07:15:23;;;;;;;10.38;3.53;;;14.40;99.90;;;;;;5043928;28;20029;-62
2021/08/27 07:17:49;;;;;;;19.23;3.97;;;14.40;99.90;;;;;;5041818;28;20378;-62
2021/08/27 07:20:15;;;;;;;19.63;3.83;;;14.40;99.90;;;;;;5043917;28;20036;-61
2021/08/27 07:22:41;;;;;;;17.52;3.53;;;14.40;99.90;;;;;;5039421;28;20444;-62
2021/08/27 07:25:08;;;;;;;13.52;2.95;;;14.40;99.90;;;;;;5045520;28;20032;-62
2021/08/27 07:27:33;;;;;;;15.75;3.13;;;14.50;99.90;;;;;;5039024;28;20033;-63
2021/08/27 07:29:59;;;;;;;16.40;3.42;;;14.50;99.90;;;;;;5034481;28;20156;-62
2021/08/27 07:32:24;;;;;;;18.30;3.13;;;14.60;99.90;;;;;;5037291;28;20040;-63
2021/08/27 07:34:50;;;;;;;17.10;4.72;;;14.60;99.90;;;;;;5044103;28;21136;-63
2021/08/27 07:37:17;;;;;;;12.20;3.22;;;14.60;99.90;;;;;;5034196;28;20021;-62
2021/08/27 07:39:46;;;;;;;17.83;2.95;;;14.70;99.90;;;;;;5033940;28;20040;-62
2021/08/27 07:42:12;;;;;;;13.88;2.90;;;14.70;99.90;;;;;;5032315;28;20453;-59
2021/08/27 07:44:37;;;;;;;14.75;2.72;;;14.70;99.90;;;;;;5039213;28;20108;-62
2021/08/27 07:47:04;;;;;;;13.35;2.80;;;14.80;99.90;;;;;;5031672;28;20520;-63
2021/08/27 07:49:29;;;;;;;14.43;2.88;;;14.80;99.90;;;;;;5033972;28;20079;-62
2021/08/27 07:51:57;;;;;;;16.23;4.28;;;14.80;99.90;;;;;;5038706;28;20044;-57
2021/08/27 07:54:23;;;;;;;7.15;2.38;;;14.80;99.90;;;;;;5044671;28;20048;-60
2021/08/27 07:56:49;;;;;;;14.10;4.40;;;14.90;99.90;;;;;;5033006;28;20460;-63
2021/08/27 07:59:15;;;;;;;10.20;2.58;;;14.90;99.90;;;;;;5043024;28;20037;-63
2021/08/27 08:01:40;;;;;;;16.33;3.25;;;14.90;99.90;;;;;;5041780;28;20033;-62
2021/08/27 08:04:06;;;;;;;12.65;3.50;;;14.90;99.90;;;;;;5034331;28;20401;-62
2021/08/27 08:06:32;;;;;;;16.38;3.28;;;14.90;99.90;;;;;;5038944;28;20025;-61
2021/08/27 08:08:58;;;;;;;18.58;3.70;;;14.90;99.90;;;;;;5039882;28;20032;-60
2021/08/27 08:11:24;;;;;;;15.02;4.43;;;14.80;99.90;;;;;;5044813;28;20543;-62
2021/08/27 08:13:50;;;;;;;12.95;3.28;;;14.80;99.90;;;;;;5035299;28;20136;-61
2021/08/27 08:16:15;;;;;;;16.65;4.75;;;14.80;99.90;;;;;;5033405;28;20382;-62
2021/08/27 08:18:41;;;;;;;8.35;3.30;;;14.80;99.90;;;;;;5039239;28;20076;-62
2021/08/27 08:21:07;;;;;;;16.63;4.93;;;14.80;99.90;;;;;;5032740;28;20105;-62
2021/08/27 08:23:33;;;;;;;16.80;4.53;;;14.80;99.90;;;;;;5033093;28;20397;-62
2021/08/27 08:25:59;;;;;;;24.10;4.80;;;14.80;99.90;;;;;;5042301;28;20055;-61
2021/08/27 08:28:25;;;;;;;10.00;4.50;;;14.70;99.90;;;;;;5037559;28;20123;-58
2021/08/27 08:30:51;;;;;;;18.95;5.32;;;14.80;99.90;;;;;;5033499;28;20660;-60
2021/08/27 08:33:18;;;;;;;13.38;4.15;;;14.80;99.90;;;;;;5034415;28;20115;-62
2021/08/27 08:35:43;;;;;;;17.63;4.53;;;14.80;99.90;;;;;;5042133;28;20036;-62
2021/08/27 08:38:09;;;;;;;17.45;4.07;;;14.90;99.90;;;;;;5037571;28;20427;-61
2021/08/27 08:40:38;;;;;;;13.60;3.90;;;15.10;99.90;;;;;;5036744;28;20322;-60
2021/08/27 08:43:05;;;;;;;14.07;4.63;;;15.20;99.90;;;;;;5036511;28;20492;-58
2021/08/27 08:45:31;;;;;;;16.33;3.70;;;15.40;99.90;;;;;;5036200;28;20499;-61
2021/08/27 08:47:58;;;;;;;14.48;3.53;;;15.40;99.90;;;;;;5041337;28;20025;-61
2021/08/27 08:50:24;;;;;;;16.45;3.53;;;15.30;99.90;;;;;;5033021;28;20398;-62
2021/08/27 08:52:50;;;;;;;15.77;4.15;;;15.30;99.90;;;;;;5040741;28;20128;-62
2021/08/27 08:55:16;;;;;;;13.38;4.03;;;15.40;99.90;;;;;;5036831;28;20072;-59
2021/08/27 08:57:42;;;;;;;16.48;4.00;;;15.40;99.90;;;;;;5035995;28;20064;-63
2021/08/27 09:00:08;;;;;;;17.98;3.85;;;15.60;99.90;;;;;;5034985;28;20030;-59
2021/08/27 09:02:33;;;;;;;14.90;3.80;;;15.50;99.90;;;;;;5039880;28;20500;-62
2021/08/27 09:04:59;;;;;;;20.17;4.60;;;15.60;99.90;;;;;;5036053;28;20033;-62
2021/08/27 09:07:25;;;;;;;13.85;4.32;;;15.80;99.90;;;;;;5036116;28;20025;-62
2021/08/27 09:09:50;;;;;;;17.67;4.35;;;15.70;99.90;;;;;;5035128;28;20022;-61
2021/08/27 09:12:21;;;;;;;12.75;3.50;;;15.70;99.90;;;;;;5032063;28;20021;-61
2021/08/27 09:15:09;;;;;;;15.73;3.50;;;15.80;99.90;;;;;;5033240;28;20128;-61
2021/08/27 09:17:37;;;;;;;14.20;3.30;;;15.80;99.90;;;;;;5032368;28;20032;-62
2021/08/27 09:20:10;;;;;;;10.27;2.83;;;15.90;99.90;;;;;;5049110;23;20444;-65
2021/08/27 09:22:56;;;;;;;8.38;3.10;;;16.00;99.90;;;;;;5018915;28;20017;-64
2021/08/27 09:25:24;;;;;;;15.48;3.35;;;16.10;99.90;;;;;;5019712;28;20013;-65
2021/08/27 09:28:00;;;;;;;11.93;2.78;;;16.20;99.90;;;;;;5022586;28;20156;-66
2021/08/27 09:30:26;;;;;;;15.68;3.10;;;16.30;99.90;;;;;;5014683;28;20033;-66
2021/08/27 09:32:54;;;;;;;28.58;3.75;;;16.50;99.90;;;;;;5005576;28;20034;-67
2021/08/27 09:35:24;;;;;;;9.35;2.55;;;16.70;99.90;;;;;;5006382;28;20077;-65
2021/08/27 09:37:54;;;;;;;10.30;3.00;;;16.70;99.90;;;;;;5007844;28;20401;-66
2021/08/27 09:40:24;;;;;;;12.10;2.47;;;16.70;99.90;;;;;;5004309;28;20497;-66
2021/08/27 09:42:52;;;;;;;10.32;2.60;;;16.70;99.90;;;;;;5007704;28;20033;-66
2021/08/27 09:45:19;;;;;;;11.20;2.47;;;16.70;99.90;;;;;;5006716;28;20042;-66
2021/08/27 09:47:59;;;;;;;14.98;2.90;;;16.60;99.90;;;;;;5003648;28;20030;-65
2021/08/27 09:50:27;;;;;;;10.57;3.05;;;16.50;99.90;;;;;;5004965;28;20108;-65
2021/08/27 09:52:53;;;;;;;9.05;3.55;;;16.30;99.90;;;;;;5009142;28;20048;-64
2021/08/27 09:55:19;;;;;;;6.28;2.28;;;16.10;99.90;;;;;;5007659;28;20022;-64
2021/08/27 09:57:45;;;;;;;7.97;2.08;;;16.00;99.90;;;;;;5001465;28;20397;-66
2021/08/27 10:00:18;;;;;;;6.40;1.80;;;16.10;99.90;;;;;;4998633;28;20113;-65
2021/08/27 10:02:44;;;;;;;7.93;2.25;;;16.00;99.90;;;;;;4995889;28;20022;-65
2021/08/27 10:05:11;;;;;;;15.35;3.00;;;16.00;99.90;;;;;;5005040;28;20028;-66
2021/08/27 10:07:38;;;;;;;9.80;3.15;;;16.10;99.90;;;;;;5003675;28;20110;-66
2021/08/27 10:10:06;;;;;;;16.85;2.10;;;16.20;99.90;;;;;;5003459;28;20172;-65
2021/08/27 10:12:34;;;;;;;11.90;1.98;;;16.30;99.90;;;;;;4997052;28;20045;-66
2021/08/27 10:15:00;;;;;;;12.50;2.10;;;16.30;99.90;;;;;;5006607;28;20072;-65
2021/08/27 10:17:27;;;;;;;7.07;2.10;;;16.50;99.90;;;;;;5001702;28;20107;-66
2021/08/27 10:19:53;;;;;;;9.63;2.40;;;17.00;99.90;;;;;;4995704;28;20030;-64
2021/08/27 10:22:18;;;;;;;9.07;2.25;;;17.50;99.90;;;;;;5002501;28;20101;-65
2021/08/27 10:24:46;;;;;;;11.32;1.75;;;17.60;99.90;;;;;;5006306;28;20026;-65
2021/08/27 10:27:14;;;;;;;11.13;1.95;;;17.40;99.90;;;;;;5005439;28;20018;-66
2021/08/27 10:29:49;;;;;;;7.88;2.28;;;17.20;99.90;;;;;;5003282;28;20022;-66
2021/08/27 10:32:34;;;;;;;8.30;2.00;;;17.10;99.90;;;;;;5005293;28;20101;-65
2021/08/27 10:35:00;;;;;;;5.65;1.60;;;17.00;99.90;;;;;;5002746;28;20721;-64
2021/08/27 10:37:41;;;;;;;11.05;2.00;;;17.00;99.90;;;;;;4996948;28;20033;-64
2021/08/27 10:40:22;;;;;;;12.55;2.42;;;16.90;99.90;;;;;;4998210;28;20029;-64
2021/08/27 10:42:56;;;;;;;9.50;2.08;;;16.80;99.90;;;;;;5004868;28;20026;-63
2021/08/27 10:45:40;;;;;;;;;;;16.90;99.90;;;;;;5001731;28;20025;-64
2021/08/27 10:48:15;;;;;;;12.48;2.47;;;16.90;99.90;;;;;;4996635;28;20056;-64
2021/08/27 10:50:44;;;;;;;6.15;1.40;;;17.10;99.90;;;;;;5002525;28;20030;-65
2021/08/27 10:53:35;;;;;;;7.03;1.67;;;17.20;99.90;;;;;;5002713;28;20040;-65
2021/08/27 10:56:09;;;;;;;8.00;1.67;;;17.20;99.90;;;;;;5004481;28;20517;-65
2021/08/27 10:58:48;;;;;;;12.07;2.67;;;17.30;99.90;;;;;;5002738;28;20042;-65
2021/08/27 11:01:33;;;;;;;7.60;1.88;;;17.40;99.90;;;;;;4998057;28;20133;-64
2021/08/27 11:04:02;;;;;;;11.50;2.22;;;17.40;99.90;;;;;;5006394;28;20033;-64
2021/08/27 11:06:28;;;;;;;11.68;1.48;;;17.40;99.90;;;;;;5007115;28;20018;-65
2021/08/27 11:08:53;;;;;;;8.02;1.75;;;17.50;99.90;;;;;;5003142;28;20045;-66
2021/08/27 11:11:21;;;;;;;7.82;1.85;;;17.50;99.90;;;;;;4991270;28;20038;-64
2021/08/27 11:13:47;;;;;;;10.02;1.50;;;17.60;99.90;;;;;;4997579;28;20034;-65
2021/08/27 11:16:18;;;;;;;6.10;1.50;;;17.90;99.90;;;;;;5006340;28;20025;-64
2021/08/27 11:18:44;;;;;;;9.02;1.67;;;18.10;99.90;;;;;;5007128;28;20145;-65
2021/08/27 11:21:30;;;;;;;12.25;1.85;;;18.10;99.90;;;;;;4996651;28;20127;-65
2021/08/27 11:24:25;;;;;;;13.93;2.38;;;18.10;99.90;;;;;;4988705;28;20424;-65
2021/08/27 11:26:58;;;;;;;14.05;1.58;;;18.00;99.90;;;;;;5000897;28;20105;-64
2021/08/27 11:29:34;;;;;;;5.00;1.50;;;18.00;99.90;;;;;;4997837;28;20033;-66
2021/08/27 11:32:11;;;;;;;12.00;1.65;;;18.00;99.90;;;;;;4995571;28;20134;-65
2021/08/27 11:34:57;;;;;;;8.93;1.50;;;18.00;99.90;;;;;;4999751;28;20038;-65
2021/08/27 11:37:44;;;;;;;5.07;1.83;;;18.30;99.90;;;;;;5004890;28;20037;-65
2021/08/27 11:40:14;;;;;;;3.72;1.17;;;18.80;99.90;;;;;;5004780;28;20038;-66
2021/08/27 11:42:42;;;;;;;5.72;1.50;;;19.20;99.90;;;;;;5000595;28;20493;-65
2021/08/27 11:45:11;;;;;;;5.90;1.40;;;19.50;99.90;;;;;;5004486;28;20034;-64
2021/08/27 11:47:54;;;;;;;8.38;1.63;;;19.70;99.90;;;;;;5000901;28;20038;-65
2021/08/27 11:50:33;;;;;;;6.40;1.50;;;19.50;99.90;;;;;;5003447;28;20048;-66
2021/08/27 11:53:01;;;;;;;9.60;1.90;;;19.20;99.90;;;;;;4999704;28;20600;-65
2021/08/27 11:55:27;;;;;;;4.57;1.25;;;18.90;99.90;;;;;;5001764;28;20038;-65
2021/08/27 11:57:55;;;;;;;9.25;2.60;;;18.50;99.90;;;;;;5004450;28;20029;-65
2021/08/27 12:00:34;;;;;;;6.25;1.50;;;18.00;99.90;;;;;;5003306;28;20056;-64
2021/08/27 12:02:59;;;;;;;4.93;1.88;;;17.70;99.90;;;;;;4995826;28;20494;-63
2021/08/27 12:05:27;;;;;;;5.45;1.65;;;17.40;99.90;;;;;;4999923;28;20083;-66
2021/08/27 12:07:53;;;;;;;7.30;2.05;;;17.30;99.90;;;;;;4998262;28;20052;-67
2021/08/27 12:10:20;;;;;;;4.82;1.58;;;17.30;99.90;;;;;;5004463;28;20034;-65
2021/08/27 12:12:47;;;;;;;6.80;1.63;;;17.30;99.90;;;;;;4998874;28;20095;-66
2021/08/27 12:15:15;;;;;;;8.45;1.77;;;17.40;99.90;;;;;;4997321;28;20034;-66
2021/08/27 12:17:58;;;;;;;5.22;1.52;;;17.60;99.90;;;;;;5005243;28;20068;-65
2021/08/27 12:20:35;;;;;;;5.28;1.70;;;17.70;99.90;;;;;;4996135;28;20851;-65
2021/08/27 12:23:14;;;;;;;9.63;3.25;;;17.70;99.90;;;;;;4992821;28;20391;-66
2021/08/27 12:25:43;;;;;;;4.43;1.23;;;17.80;99.90;;;;;;4999153;28;20026;-65
2021/08/27 12:28:10;;;;;;;5.38;1.75;;;17.90;99.90;;;;;;4999895;28;20034;-64
2021/08/27 12:30:44;;;;;;;4.43;1.73;;;18.10;99.90;;;;;;4997639;28;20117;-65
2021/08/27 12:33:10;;;;;;;9.45;2.15;;;18.50;99.90;;;;;;4994016;28;20601;-64
2021/08/27 12:35:37;;;;;;;7.63;1.98;;;18.70;99.90;;;;;;4998824;28;20433;-64
2021/08/27 12:38:04;;;;;;;7.60;1.80;;;18.60;99.90;;;;;;4993341;28;20042;-65
2021/08/27 12:40:31;;;;;;;8.35;2.30;;;18.40;99.90;;;;;;5003373;28;20116;-65
2021/08/27 12:43:06;;;;;;;7.97;1.50;;;18.30;99.90;;;;;;5002444;28;20025;-65
2021/08/27 12:45:43;;;;;;;;;;;17.70;99.90;;;;;;4998688;28;20038;-64
2021/08/27 12:48:10;;;;;;;9.88;1.83;;;17.00;99.90;;;;;;4996108;28;19915;-64